x

Santa Monica Basin - 33nm Wsw Of Santa Monica, Ca (46025) Wave Buoy

7:50 - Mon 27th Jul 2015 All times are PDT. -7 hours from GMT.

  • Sig Wave height 3.3ft
  • Swell Direction
  • Peak Period 17s
  • Average Period 5s
  • Wind
    11mph, 13mph gusts
  • Sea Temp 71°f
  • Luft Temp 67°f
  • Sea Pressure 1011.7mb
  • Santa Monica Basin - 33nm Wsw Of Santa Monica, Ca
  • Santa Monica Basin - 33nm Wsw Of Santa Monica, Ca

More Historic Weather Station data

Upgrade to MSW Pro to gain access to the past 30 days of data for over 8000 Wavebouys and Weather Stations around the globe.

Join Pro

Comparision Forecast

View Surf forecast
   
Mo 07/27 7:50 3.5ft 17s 5s 11 13 mph 1011.7mb 71f 67f
6:50 2.5ft 17s 5s 9 11 mph 1011.4mb 72f 67f
5:50 3ft 17s 6s 11 16 mph 1011.4mb 72f 67f
4:50 3ft 19s 6s 11 13 mph 1011.8mb 73f 68f
3:50 3ft 19s 7s 7 9 mph 1012.3mb 74f 70f
2:50 2.5ft 15s 6s 7 9 mph 1012.7mb 74f 70f
1:50 3ft 19s 6s 4 7 mph 1013.2mb 74f 69f
12:50 2.5ft 17s 6s 4 7 mph 1013.6mb 73f 69f
11:50 2.5ft 17s 6s 4 7 mph 1013.9mb 72f 69f
10:50 3ft 16s 6s 4 7 mph 1013.9mb 72f 70f
9:50 3ft 19s 6s 2
mph
1014mb 71f 69f
8:50 2.5ft 19s 6s 2 4 mph 1013.9mb 71f 69f
7:50 3ft 14s 6s 7 11 mph 1013.4mb 71f 68f
6:50 3ft 16s 6s 2 4 mph 1013.1mb 71f 66f
5:50 3.5ft 17s 6s 4 7 mph 1012.7mb 71f 66f
4:50 3.5ft 15s  -  9 11 mph 1012.3mb 71f 66f
3:50 4ft 17s 6s 7 9 mph 1012.3mb 71f 66f
2:50 4ft 7s 6s 4 7 mph 1012.2mb 71f 66f
1:50 4.5ft 6s 5s 4 7 mph 1012.4mb 72f 66f
12:50 4.5ft 17s 5s 11 13 mph 1012.9mb 72f 66f
So 07/26 11:50 4.5ft 6s 5s 9 11 mph 1013mb 72f 67f
10:50 4.5ft 6s 5s 11 13 mph 1012.9mb 72f 67f
9:50 4.5ft 6s 5s 9 11 mph 1012.6mb 73f 67f
8:50 4.5ft 6s 5s 11 13 mph 1012.1mb 72f 67f
7:50 4.5ft 6s 5s 11 13 mph 1011.9mb 72f 68f
6:50 4ft 6s 5s 7 9 mph 1012mb 73f 69f
5:50 4ft 6s 5s 4 7 mph 1012.3mb 73f 69f
4:50 3.5ft 6s 5s 11 13 mph 1012.5mb 73f 68f
3:50 3.5ft 15s 5s 16 18 mph 1012.9mb 73f 67f
2:50 3.5ft 17s 6s 9 11 mph 1013.5mb 74f 68f
1:50 3.5ft 6s 5s 4 7 mph 1013.8mb 75f 68f
12:50 3.5ft 16s 6s 2 4 mph 1014.5mb 74f 68f
11:50 4.5ft 6s 6s  -  2 mph 1014.8mb 73f 68f
10:50 4.5ft 6s 6s 2
mph
1014.5mb 73f 68f
9:50 4.5ft 6s 6s  -  2 mph 1014.3mb 72f 68f
8:50 4.5ft 7s 6s 2 4 mph 1014.1mb 72f 67f
7:50 4.5ft 7s 5s 4 7 mph 1013.7mb 72f 66f
6:50 4.5ft 6s 5s 4 9 mph 1013.1mb 72f 68f
5:50 4.5ft 7s 6s 9 11 mph 1012.4mb 72f 68f
4:50 5ft 7s 6s 11 13 mph 1012mb 72f 67f
3:50 4.5ft 6s 5s 13 16 mph 1012.1mb 72f 67f
2:50 5ft 6s 5s 9 11 mph 1012.3mb 72f 68f
1:50 4.5ft 6s 5s 11 13 mph 1012.5mb 72f 68f
12:50 4.5ft 5s 5s 13 16 mph 1012.7mb 72f 69f
Sa 07/25 11:50 4ft 6s 6s 11 13 mph 1012.8mb 72f 69f
10:50 3.5ft 15s 6s 4 7 mph 1013mb 72f 70f
9:50 3.5ft 16s 6s 4
mph
1012.8mb 72f 70f
8:50 3.5ft 6s 5s 4 9 mph 1012.6mb 72f 71f
7:50 3ft 19s 5s 16 20 mph 1012.4mb 73f 70f
6:50 2.5ft 15s 6s 13 16 mph 1012.7mb 73f 71f
5:50 3ft 14s 6s 9 11 mph 1013.3mb 73f 71f
4:50 3ft 15s 6s 11 13 mph 1013.6mb 73f 71f
3:50 3ft 16s 7s 11 13 mph 1014.2mb 74f 71f
2:50 3ft 16s 6s 9 11 mph 1014.9mb 75f 72f
1:50 3ft 15s 6s 4 7 mph 1015.6mb 76f 71f
12:50 3ft 16s 6s  -  2 mph 1016.2mb 76f 71f
11:50 3.5ft 15s 6s 2 4 mph 1016.7mb 74f 70f
10:50 3.5ft 7s 6s 2 7 mph 1017.1mb 73f 70f
9:50 3ft 16s 6s 2 4 mph 1016.9mb 72f 70f
8:50 3.5ft 16s 6s 2 4 mph 1016.9mb 72f 70f
7:50 3.5ft 7s 6s 2 4 mph 1016.5mb 71f 70f
6:50 3ft 16s 6s 4
mph
1016mb 71f 69f
5:50 3ft 6s 6s 4 7 mph 1015.7mb 71f 69f
4:50 3ft 14s 6s 4
mph
1015.7mb 72f 69f
3:50 3ft 16s 6s 4
mph
1015.6mb 72f 70f
2:50 3ft 16s 6s  -  2 mph 1015.9mb 72f 69f
1:50 3ft 15s 5s 2 4 mph 1016mb 72f 70f
12:50 3ft 16s 6s 4
mph
1016.2mb 72f 70f
Fr 07/24 11:50 2.5ft 13s 5s 7 9 mph 1016.3mb 71f 70f
10:50 2.5ft 17s 5s 9
mph
1016.5mb 71f 70f
9:50 2.5ft 14s 6s 9 11 mph 1016.4mb 71f 70f
8:50 2.5ft 14s 6s 11 13 mph 1015.9mb 72f 70f
7:50 2.5ft 17s 5s 11 13 mph 1015.8mb 72f 69f
6:50 2.5ft 17s 6s 13
mph
1015.7mb 72f 69f
5:50 2.5ft 15s 6s 11 13 mph 1015.9mb 72f 69f
4:50 2.5ft 14s 6s 11
mph
1016.2mb 73f 69f
3:50 2.5ft 14s 6s 11
mph
1016.6mb 73f 68f
2:50 2.5ft 14s 6s 9 11 mph 1017.2mb 73f 68f
1:50 2.5ft 15s 6s 7 9 mph 1017.6mb 73f 68f
12:50 2.5ft 6s 6s 4 7 mph 1018.4mb 74f 69f
11:50 2.5ft 6s 6s 4
mph
1018.8mb 72f 69f
10:50 2.5ft 15s 6s 4 7 mph 1018.9mb 71f 68f
9:50 2.5ft 15s 6s 7
mph
1018.6mb 71f 68f
8:50 2.5ft 14s 6s 7 9 mph 1018.6mb 71f 68f
7:50 2.5ft 15s 7s 4 9 mph 1017.9mb 71f 68f
6:50 2.5ft 14s 7s 7 11 mph 1017.2mb 71f 68f
5:50 2.5ft 15s 6s 4 7 mph 1016.4mb 71f 68f
4:50 2.5ft 14s 6s  -  mph 1015.9mb 71f 68f